sensor_id;sensor_type;location;lat;lon;timestamp;P1;durP1;ratioP1;P2;durP2;ratioP2
12451;SDS011;6291;48.924;12.204;2023-03-21T00:01:32;3.55;;;3.15;;
12451;SDS011;6291;48.924;12.204;2023-03-21T00:06:38;4.45;;;3.50;;
12451;SDS011;6291;48.924;12.204;2023-03-21T00:11:41;3.80;;;3.33;;
12451;SDS011;6291;48.924;12.204;2023-03-21T00:16:45;3.88;;;3.40;;
12451;SDS011;6291;48.924;12.204;2023-03-21T00:21:53;5.40;;;3.70;;
12451;SDS011;6291;48.924;12.204;2023-03-21T00:27:08;5.38;;;3.50;;
12451;SDS011;6291;48.924;12.204;2023-03-21T00:32:32;3.80;;;3.10;;
12451;SDS011;6291;48.924;12.204;2023-03-21T00:37:44;5.00;;;3.40;;
12451;SDS011;6291;48.924;12.204;2023-03-21T00:42:48;4.50;;;3.57;;
12451;SDS011;6291;48.924;12.204;2023-03-21T00:47:51;4.03;;;3.53;;
12451;SDS011;6291;48.924;12.204;2023-03-21T00:52:56;4.50;;;3.47;;
12451;SDS011;6291;48.924;12.204;2023-03-21T00:58:00;3.67;;;3.30;;
12451;SDS011;6291;48.924;12.204;2023-03-21T01:03:04;6.13;;;3.70;;
12451;SDS011;6291;48.924;12.204;2023-03-21T01:08:26;3.67;;;3.30;;
12451;SDS011;6291;48.924;12.204;2023-03-21T01:13:45;3.80;;;3.40;;
12451;SDS011;6291;48.924;12.204;2023-03-21T01:18:58;3.97;;;3.58;;
12451;SDS011;6291;48.924;12.204;2023-03-21T01:24:07;4.32;;;3.60;;
12451;SDS011;6291;48.924;12.204;2023-03-21T01:29:11;3.95;;;3.58;;
12451;SDS011;6291;48.924;12.204;2023-03-21T01:34:14;4.20;;;3.80;;
12451;SDS011;6291;48.924;12.204;2023-03-21T01:39:20;4.10;;;3.70;;
12451;SDS011;6291;48.924;12.204;2023-03-21T01:44:24;4.65;;;3.33;;
12451;SDS011;6291;48.924;12.204;2023-03-21T01:49:29;3.92;;;3.53;;
12451;SDS011;6291;48.924;12.204;2023-03-21T01:54:49;4.50;;;3.55;;
12451;SDS011;6291;48.924;12.204;2023-03-21T01:59:56;5.50;;;5.00;;
12451;SDS011;6291;48.924;12.204;2023-03-21T02:05:23;3.93;;;3.27;;
12451;SDS011;6291;48.924;12.204;2023-03-21T02:10:32;3.42;;;3.13;;
12451;SDS011;6291;48.924;12.204;2023-03-21T02:15:39;3.53;;;3.15;;
12451;SDS011;6291;48.924;12.204;2023-03-21T02:21:00;4.90;;;3.35;;
12451;SDS011;6291;48.924;12.204;2023-03-21T02:26:48;3.50;;;3.20;;
12451;SDS011;6291;48.924;12.204;2023-03-21T02:32:16;5.20;;;3.67;;
12451;SDS011;6291;48.924;12.204;2023-03-21T02:37:40;4.00;;;3.60;;
12451;SDS011;6291;48.924;12.204;2023-03-21T02:43:01;4.40;;;4.00;;
12451;SDS011;6291;48.924;12.204;2023-03-21T02:48:23;4.18;;;3.65;;
12451;SDS011;6291;48.924;12.204;2023-03-21T02:53:48;4.70;;;3.97;;
12451;SDS011;6291;48.924;12.204;2023-03-21T02:59:16;4.82;;;3.60;;
12451;SDS011;6291;48.924;12.204;2023-03-21T03:04:25;4.53;;;4.07;;
12451;SDS011;6291;48.924;12.204;2023-03-21T03:09:36;6.07;;;3.63;;
12451;SDS011;6291;48.924;12.204;2023-03-21T03:14:51;4.47;;;3.97;;
12451;SDS011;6291;48.924;12.204;2023-03-21T03:20:11;4.10;;;3.67;;
12451;SDS011;6291;48.924;12.204;2023-03-21T03:25:22;4.07;;;3.67;;
12451;SDS011;6291;48.924;12.204;2023-03-21T03:30:46;4.38;;;3.80;;
12451;SDS011;6291;48.924;12.204;2023-03-21T03:36:12;5.28;;;3.90;;
12451;SDS011;6291;48.924;12.204;2023-03-21T03:41:36;4.30;;;3.77;;
12451;SDS011;6291;48.924;12.204;2023-03-21T03:47:09;4.28;;;3.88;;
12451;SDS011;6291;48.924;12.204;2023-03-21T03:52:28;4.67;;;3.80;;
12451;SDS011;6291;48.924;12.204;2023-03-21T03:57:43;4.38;;;3.97;;
12451;SDS011;6291;48.924;12.204;2023-03-21T04:02:47;4.55;;;3.88;;
12451;SDS011;6291;48.924;12.204;2023-03-21T04:07:55;4.47;;;4.07;;
12451;SDS011;6291;48.924;12.204;2023-03-21T04:13:10;4.30;;;3.90;;
12451;SDS011;6291;48.924;12.204;2023-03-21T04:18:37;4.35;;;3.95;;
12451;SDS011;6291;48.924;12.204;2023-03-21T04:23:41;4.55;;;4.13;;
12451;SDS011;6291;48.924;12.204;2023-03-21T04:28:46;6.07;;;3.97;;
12451;SDS011;6291;48.924;12.204;2023-03-21T04:34:09;5.10;;;4.30;;
12451;SDS011;6291;48.924;12.204;2023-03-21T04:39:19;5.07;;;4.57;;
12451;SDS011;6291;48.924;12.204;2023-03-21T04:44:26;5.13;;;4.55;;
12451;SDS011;6291;48.924;12.204;2023-03-21T04:49:30;5.60;;;4.47;;
12451;SDS011;6291;48.924;12.204;2023-03-21T04:54:33;5.00;;;4.50;;
12451;SDS011;6291;48.924;12.204;2023-03-21T04:59:39;5.00;;;4.33;;
12451;SDS011;6291;48.924;12.204;2023-03-21T05:04:42;4.70;;;4.23;;
12451;SDS011;6291;48.924;12.204;2023-03-21T05:09:45;4.80;;;4.30;;
12451;SDS011;6291;48.924;12.204;2023-03-21T05:14:51;4.72;;;4.20;;
12451;SDS011;6291;48.924;12.204;2023-03-21T05:19:55;4.43;;;4.03;;
12451;SDS011;6291;48.924;12.204;2023-03-21T05:24:59;4.95;;;4.30;;
12451;SDS011;6291;48.924;12.204;2023-03-21T05:30:23;5.22;;;4.60;;
12451;SDS011;6291;48.924;12.204;2023-03-21T05:35:31;5.22;;;4.15;;
12451;SDS011;6291;48.924;12.204;2023-03-21T05:40:39;4.40;;;4.00;;
12451;SDS011;6291;48.924;12.204;2023-03-21T05:45:44;5.45;;;4.28;;
12451;SDS011;6291;48.924;12.204;2023-03-21T05:50:52;7.10;;;5.10;;
12451;SDS011;6291;48.924;12.204;2023-03-21T05:55:57;5.20;;;4.70;;
12451;SDS011;6291;48.924;12.204;2023-03-21T06:01:25;4.97;;;4.55;;
12451;SDS011;6291;48.924;12.204;2023-03-21T06:06:39;5.57;;;5.03;;
12451;SDS011;6291;48.924;12.204;2023-03-21T06:11:45;7.72;;;6.15;;
12451;SDS011;6291;48.924;12.204;2023-03-21T06:17:17;5.70;;;5.20;;
12451;SDS011;6291;48.924;12.204;2023-03-21T06:22:26;7.30;;;5.67;;
12451;SDS011;6291;48.924;12.204;2023-03-21T06:27:30;7.50;;;5.25;;
12451;SDS011;6291;48.924;12.204;2023-03-21T06:32:34;4.45;;;4.03;;
12451;SDS011;6291;48.924;12.204;2023-03-21T06:37:45;4.85;;;4.35;;
12451;SDS011;6291;48.924;12.204;2023-03-21T06:42:50;4.90;;;3.85;;
12451;SDS011;6291;48.924;12.204;2023-03-21T06:47:55;3.67;;;3.38;;
12451;SDS011;6291;48.924;12.204;2023-03-21T06:53:20;4.72;;;4.30;;
12451;SDS011;6291;48.924;12.204;2023-03-21T06:58:51;4.07;;;3.70;;
12451;SDS011;6291;48.924;12.204;2023-03-21T07:04:22;4.57;;;4.18;;
12451;SDS011;6291;48.924;12.204;2023-03-21T07:09:29;4.60;;;4.10;;
12451;SDS011;6291;48.924;12.204;2023-03-21T07:14:38;4.97;;;4.20;;
12451;SDS011;6291;48.924;12.204;2023-03-21T07:19:43;6.07;;;5.50;;
12451;SDS011;6291;48.924;12.204;2023-03-21T07:24:47;5.80;;;4.88;;
12451;SDS011;6291;48.924;12.204;2023-03-21T07:30:07;4.53;;;4.13;;
12451;SDS011;6291;48.924;12.204;2023-03-21T07:35:14;4.47;;;4.00;;
12451;SDS011;6291;48.924;12.204;2023-03-21T07:40:18;4.30;;;3.90;;
12451;SDS011;6291;48.924;12.204;2023-03-21T07:45:22;4.83;;;3.70;;
12451;SDS011;6291;48.924;12.204;2023-03-21T07:50:29;5.17;;;3.73;;
12451;SDS011;6291;48.924;12.204;2023-03-21T07:55:33;5.18;;;4.60;;
12451;SDS011;6291;48.924;12.204;2023-03-21T08:00:37;4.73;;;4.30;;
12451;SDS011;6291;48.924;12.204;2023-03-21T08:05:41;4.70;;;4.03;;
12451;SDS011;6291;48.924;12.204;2023-03-21T08:10:45;5.20;;;4.70;;
12451;SDS011;6291;48.924;12.204;2023-03-21T08:15:49;4.88;;;4.13;;
12451;SDS011;6291;48.924;12.204;2023-03-21T08:20:55;5.00;;;4.15;;
12451;SDS011;6291;48.924;12.204;2023-03-21T08:25:59;4.93;;;3.90;;
12451;SDS011;6291;48.924;12.204;2023-03-21T08:31:05;4.20;;;3.63;;
12451;SDS011;6291;48.924;12.204;2023-03-21T08:36:11;4.50;;;3.90;;
12451;SDS011;6291;48.924;12.204;2023-03-21T08:41:14;4.57;;;3.63;;
12451;SDS011;6291;48.924;12.204;2023-03-21T08:46:19;3.27;;;2.87;;
12451;SDS011;6291;48.924;12.204;2023-03-21T08:51:24;3.80;;;3.03;;
12451;SDS011;6291;48.924;12.204;2023-03-21T08:56:27;4.22;;;2.78;;
12451;SDS011;6291;48.924;12.204;2023-03-21T09:01:31;3.50;;;3.17;;
12451;SDS011;6291;48.924;12.204;2023-03-21T09:06:35;4.50;;;2.75;;
12451;SDS011;6291;48.924;12.204;2023-03-21T09:11:41;4.23;;;3.40;;
12451;SDS011;6291;48.924;12.204;2023-03-21T09:16:44;4.55;;;3.22;;
12451;SDS011;6291;48.924;12.204;2023-03-21T09:21:49;4.40;;;2.40;;
12451;SDS011;6291;48.924;12.204;2023-03-21T09:26:53;4.13;;;2.30;;
12451;SDS011;6291;48.924;12.204;2023-03-21T09:31:57;3.60;;;2.22;;
12451;SDS011;6291;48.924;12.204;2023-03-21T09:37:03;4.13;;;2.70;;
12451;SDS011;6291;48.924;12.204;2023-03-21T09:42:16;3.25;;;2.25;;
12451;SDS011;6291;48.924;12.204;2023-03-21T09:47:31;3.53;;;2.50;;
12451;SDS011;6291;48.924;12.204;2023-03-21T09:52:49;5.15;;;2.38;;
12451;SDS011;6291;48.924;12.204;2023-03-21T09:57:59;3.20;;;2.30;;
12451;SDS011;6291;48.924;12.204;2023-03-21T10:03:10;3.10;;;2.17;;
12451;SDS011;6291;48.924;12.204;2023-03-21T10:08:27;3.57;;;2.63;;
12451;SDS011;6291;48.924;12.204;2023-03-21T10:13:36;2.90;;;2.57;;
12451;SDS011;6291;48.924;12.204;2023-03-21T10:18:43;4.07;;;2.65;;
12451;SDS011;6291;48.924;12.204;2023-03-21T10:23:48;3.35;;;2.88;;
12451;SDS011;6291;48.924;12.204;2023-03-21T10:28:53;3.60;;;2.72;;
12451;SDS011;6291;48.924;12.204;2023-03-21T10:34:00;4.10;;;3.27;;
12451;SDS011;6291;48.924;12.204;2023-03-21T10:39:11;3.65;;;2.70;;
12451;SDS011;6291;48.924;12.204;2023-03-21T10:44:22;3.57;;;3.10;;
12451;SDS011;6291;48.924;12.204;2023-03-21T10:49:32;4.63;;;2.90;;
12451;SDS011;6291;48.924;12.204;2023-03-21T10:55:11;3.30;;;2.95;;
12451;SDS011;6291;48.924;12.204;2023-03-21T11:00:23;4.45;;;3.17;;
12451;SDS011;6291;48.924;12.204;2023-03-21T11:05:33;3.50;;;2.72;;
12451;SDS011;6291;48.924;12.204;2023-03-21T11:10:47;3.45;;;3.08;;
12451;SDS011;6291;48.924;12.204;2023-03-21T11:15:55;4.32;;;3.45;;
12451;SDS011;6291;48.924;12.204;2023-03-21T11:21:06;4.22;;;3.47;;
12451;SDS011;6291;48.924;12.204;2023-03-21T11:26:15;3.30;;;2.90;;
12451;SDS011;6291;48.924;12.204;2023-03-21T11:31:35;3.75;;;3.25;;
12451;SDS011;6291;48.924;12.204;2023-03-21T11:36:40;2.55;;;2.10;;
12451;SDS011;6291;48.924;12.204;2023-03-21T11:41:46;4.22;;;2.83;;
12451;SDS011;6291;48.924;12.204;2023-03-21T11:46:52;5.00;;;3.13;;
12451;SDS011;6291;48.924;12.204;2023-03-21T11:52:02;3.30;;;2.70;;
12451;SDS011;6291;48.924;12.204;2023-03-21T11:57:17;3.03;;;2.72;;
12451;SDS011;6291;48.924;12.204;2023-03-21T12:02:35;4.80;;;3.30;;
12451;SDS011;6291;48.924;12.204;2023-03-21T12:08:06;3.20;;;2.28;;
12451;SDS011;6291;48.924;12.204;2023-03-21T12:13:24;3.13;;;2.17;;
12451;SDS011;6291;48.924;12.204;2023-03-21T12:18:48;2.63;;;2.10;;
12451;SDS011;6291;48.924;12.204;2023-03-21T12:24:20;3.92;;;2.20;;
12451;SDS011;6291;48.924;12.204;2023-03-21T12:29:39;2.90;;;2.35;;
12451;SDS011;6291;48.924;12.204;2023-03-21T12:34:56;2.92;;;2.38;;
12451;SDS011;6291;48.924;12.204;2023-03-21T12:40:16;4.18;;;2.67;;
12451;SDS011;6291;48.924;12.204;2023-03-21T12:45:30;4.10;;;2.80;;
12451;SDS011;6291;48.924;12.204;2023-03-21T12:50:47;2.50;;;2.20;;
12451;SDS011;6291;48.924;12.204;2023-03-21T12:55:55;3.33;;;3.03;;
12451;SDS011;6291;48.924;12.204;2023-03-21T13:01:04;3.90;;;3.30;;
12451;SDS011;6291;48.924;12.204;2023-03-21T13:06:10;5.30;;;3.33;;
12451;SDS011;6291;48.924;12.204;2023-03-21T13:11:19;3.23;;;2.93;;
12451;SDS011;6291;48.924;12.204;2023-03-21T13:16:27;3.63;;;2.70;;
12451;SDS011;6291;48.924;12.204;2023-03-21T13:21:40;2.85;;;2.42;;
12451;SDS011;6291;48.924;12.204;2023-03-21T13:26:48;3.27;;;2.77;;
12451;SDS011;6291;48.924;12.204;2023-03-21T13:31:57;3.80;;;2.80;;
12451;SDS011;6291;48.924;12.204;2023-03-21T13:37:11;3.75;;;2.60;;
12451;SDS011;6291;48.924;12.204;2023-03-21T13:42:22;2.58;;;2.10;;
12451;SDS011;6291;48.924;12.204;2023-03-21T13:47:41;2.63;;;2.42;;
12451;SDS011;6291;48.924;12.204;2023-03-21T13:53:10;2.80;;;2.40;;
12451;SDS011;6291;48.924;12.204;2023-03-21T13:58:30;2.85;;;2.50;;
12451;SDS011;6291;48.924;12.204;2023-03-21T14:03:36;3.17;;;2.80;;
12451;SDS011;6291;48.924;12.204;2023-03-21T14:08:40;2.92;;;2.60;;
12451;SDS011;6291;48.924;12.204;2023-03-21T14:13:47;4.03;;;3.53;;
12451;SDS011;6291;48.924;12.204;2023-03-21T14:18:54;4.72;;;3.42;;
12451;SDS011;6291;48.924;12.204;2023-03-21T14:24:00;4.10;;;2.90;;
12451;SDS011;6291;48.924;12.204;2023-03-21T14:29:05;2.85;;;2.50;;
12451;SDS011;6291;48.924;12.204;2023-03-21T14:34:28;3.42;;;2.88;;
12451;SDS011;6291;48.924;12.204;2023-03-21T14:39:33;2.90;;;2.50;;
12451;SDS011;6291;48.924;12.204;2023-03-21T14:44:37;3.40;;;2.70;;
12451;SDS011;6291;48.924;12.204;2023-03-21T14:49:56;3.47;;;2.58;;
12451;SDS011;6291;48.924;12.204;2023-03-21T14:55:02;3.33;;;2.70;;
12451;SDS011;6291;48.924;12.204;2023-03-21T15:00:18;3.13;;;2.50;;
12451;SDS011;6291;48.924;12.204;2023-03-21T15:05:28;2.93;;;2.63;;
12451;SDS011;6291;48.924;12.204;2023-03-21T15:10:33;3.50;;;2.60;;
12451;SDS011;6291;48.924;12.204;2023-03-21T15:15:38;3.40;;;2.95;;
12451;SDS011;6291;48.924;12.204;2023-03-21T15:20:45;8.35;;;4.82;;
12451;SDS011;6291;48.924;12.204;2023-03-21T15:25:50;8.30;;;5.35;;
12451;SDS011;6291;48.924;12.204;2023-03-21T15:30:54;5.50;;;3.72;;
12451;SDS011;6291;48.924;12.204;2023-03-21T15:35:59;4.10;;;2.60;;
12451;SDS011;6291;48.924;12.204;2023-03-21T15:41:13;3.20;;;2.80;;
12451;SDS011;6291;48.924;12.204;2023-03-21T15:46:30;3.92;;;2.60;;
12451;SDS011;6291;48.924;12.204;2023-03-21T15:51:37;3.97;;;2.70;;
12451;SDS011;6291;48.924;12.204;2023-03-21T15:56:42;5.40;;;3.23;;
12451;SDS011;6291;48.924;12.204;2023-03-21T16:01:47;3.87;;;3.13;;
12451;SDS011;6291;48.924;12.204;2023-03-21T16:06:57;4.57;;;3.33;;
12451;SDS011;6291;48.924;12.204;2023-03-21T16:12:05;3.75;;;3.03;;
12451;SDS011;6291;48.924;12.204;2023-03-21T16:17:16;3.80;;;2.67;;
12451;SDS011;6291;48.924;12.204;2023-03-21T16:22:29;2.83;;;2.40;;
12451;SDS011;6291;48.924;12.204;2023-03-21T16:27:35;4.30;;;2.80;;
12451;SDS011;6291;48.924;12.204;2023-03-21T16:32:38;3.70;;;2.47;;
12451;SDS011;6291;48.924;12.204;2023-03-21T16:37:43;4.10;;;2.70;;
12451;SDS011;6291;48.924;12.204;2023-03-21T16:42:48;4.85;;;2.85;;
12451;SDS011;6291;48.924;12.204;2023-03-21T16:47:51;3.88;;;2.65;;
12451;SDS011;6291;48.924;12.204;2023-03-21T16:52:56;5.45;;;3.25;;
12451;SDS011;6291;48.924;12.204;2023-03-21T16:58:01;4.83;;;2.90;;
12451;SDS011;6291;48.924;12.204;2023-03-21T17:03:07;5.65;;;4.03;;
12451;SDS011;6291;48.924;12.204;2023-03-21T17:08:17;5.13;;;3.30;;
12451;SDS011;6291;48.924;12.204;2023-03-21T17:13:22;5.63;;;3.10;;
12451;SDS011;6291;48.924;12.204;2023-03-21T17:18:25;5.27;;;3.73;;
12451;SDS011;6291;48.924;12.204;2023-03-21T17:23:31;11.65;;;8.98;;
12451;SDS011;6291;48.924;12.204;2023-03-21T17:28:34;9.60;;;6.47;;
12451;SDS011;6291;48.924;12.204;2023-03-21T17:33:38;6.43;;;3.77;;
12451;SDS011;6291;48.924;12.204;2023-03-21T17:38:43;3.80;;;3.17;;
12451;SDS011;6291;48.924;12.204;2023-03-21T17:43:47;5.55;;;2.95;;
12451;SDS011;6291;48.924;12.204;2023-03-21T17:48:52;5.05;;;3.40;;
12451;SDS011;6291;48.924;12.204;2023-03-21T17:53:58;5.27;;;3.57;;
12451;SDS011;6291;48.924;12.204;2023-03-21T17:59:03;9.40;;;6.60;;
12451;SDS011;6291;48.924;12.204;2023-03-21T18:04:11;15.00;;;9.15;;
12451;SDS011;6291;48.924;12.204;2023-03-21T18:09:16;6.67;;;4.77;;
12451;SDS011;6291;48.924;12.204;2023-03-21T18:14:22;3.57;;;3.27;;
12451;SDS011;6291;48.924;12.204;2023-03-21T18:19:29;4.27;;;3.30;;
12451;SDS011;6291;48.924;12.204;2023-03-21T18:24:36;3.47;;;2.87;;
12451;SDS011;6291;48.924;12.204;2023-03-21T18:29:40;4.27;;;2.90;;
12451;SDS011;6291;48.924;12.204;2023-03-21T18:35:04;5.28;;;3.70;;
12451;SDS011;6291;48.924;12.204;2023-03-21T18:40:10;5.63;;;3.47;;
12451;SDS011;6291;48.924;12.204;2023-03-21T18:45:15;4.60;;;3.65;;
12451;SDS011;6291;48.924;12.204;2023-03-21T18:50:19;3.63;;;3.30;;
12451;SDS011;6291;48.924;12.204;2023-03-21T18:55:24;5.60;;;3.67;;
12451;SDS011;6291;48.924;12.204;2023-03-21T19:00:46;5.25;;;3.40;;
12451;SDS011;6291;48.924;12.204;2023-03-21T19:05:51;6.47;;;4.20;;
12451;SDS011;6291;48.924;12.204;2023-03-21T19:11:00;4.10;;;3.70;;
12451;SDS011;6291;48.924;12.204;2023-03-21T19:16:07;56.60;;;32.47;;
12451;SDS011;6291;48.924;12.204;2023-03-21T19:21:12;37.05;;;27.90;;
12451;SDS011;6291;48.924;12.204;2023-03-21T19:26:16;10.55;;;9.38;;
12451;SDS011;6291;48.924;12.204;2023-03-21T19:31:20;5.85;;;5.32;;
12451;SDS011;6291;48.924;12.204;2023-03-21T19:36:24;5.10;;;4.60;;
12451;SDS011;6291;48.924;12.204;2023-03-21T19:41:29;4.65;;;3.92;;
12451;SDS011;6291;48.924;12.204;2023-03-21T19:46:33;4.32;;;3.70;;
12451;SDS011;6291;48.924;12.204;2023-03-21T19:51:36;3.95;;;3.38;;
12451;SDS011;6291;48.924;12.204;2023-03-21T19:56:41;4.38;;;3.50;;
12451;SDS011;6291;48.924;12.204;2023-03-21T20:01:48;4.50;;;4.00;;
12451;SDS011;6291;48.924;12.204;2023-03-21T20:06:59;6.25;;;3.88;;
12451;SDS011;6291;48.924;12.204;2023-03-21T20:12:04;5.18;;;3.92;;
12451;SDS011;6291;48.924;12.204;2023-03-21T20:17:08;5.15;;;3.60;;
12451;SDS011;6291;48.924;12.204;2023-03-21T20:22:12;4.32;;;3.38;;
12451;SDS011;6291;48.924;12.204;2023-03-21T20:27:29;3.55;;;3.22;;
12451;SDS011;6291;48.924;12.204;2023-03-21T20:32:33;4.07;;;3.30;;
12451;SDS011;6291;48.924;12.204;2023-03-21T20:37:38;4.97;;;3.70;;
12451;SDS011;6291;48.924;12.204;2023-03-21T20:42:48;5.22;;;4.05;;
12451;SDS011;6291;48.924;12.204;2023-03-21T20:47:51;4.40;;;4.00;;
12451;SDS011;6291;48.924;12.204;2023-03-21T20:52:55;4.47;;;4.07;;
12451;SDS011;6291;48.924;12.204;2023-03-21T20:58:09;5.90;;;3.90;;
12451;SDS011;6291;48.924;12.204;2023-03-21T21:03:35;4.93;;;4.43;;
12451;SDS011;6291;48.924;12.204;2023-03-21T21:08:39;4.10;;;3.80;;
12451;SDS011;6291;48.924;12.204;2023-03-21T21:13:45;5.22;;;4.00;;
12451;SDS011;6291;48.924;12.204;2023-03-21T21:18:48;4.80;;;4.00;;
12451;SDS011;6291;48.924;12.204;2023-03-21T21:23:52;6.88;;;6.25;;
12451;SDS011;6291;48.924;12.204;2023-03-21T21:28:57;7.82;;;7.10;;
12451;SDS011;6291;48.924;12.204;2023-03-21T21:34:01;7.50;;;6.78;;
12451;SDS011;6291;48.924;12.204;2023-03-21T21:39:06;7.30;;;6.28;;
12451;SDS011;6291;48.924;12.204;2023-03-21T21:44:11;5.78;;;4.57;;
12451;SDS011;6291;48.924;12.204;2023-03-21T21:49:15;5.80;;;4.40;;
12451;SDS011;6291;48.924;12.204;2023-03-21T21:54:18;6.47;;;4.40;;
12451;SDS011;6291;48.924;12.204;2023-03-21T21:59:23;4.33;;;3.90;;
12451;SDS011;6291;48.924;12.204;2023-03-21T22:04:27;5.93;;;3.90;;
12451;SDS011;6291;48.924;12.204;2023-03-21T22:09:30;7.07;;;3.90;;
12451;SDS011;6291;48.924;12.204;2023-03-21T22:14:35;4.87;;;4.13;;
12451;SDS011;6291;48.924;12.204;2023-03-21T22:19:39;4.07;;;3.67;;
12451;SDS011;6291;48.924;12.204;2023-03-21T22:24:45;5.30;;;4.38;;
12451;SDS011;6291;48.924;12.204;2023-03-21T22:29:52;4.72;;;3.45;;
12451;SDS011;6291;48.924;12.204;2023-03-21T22:34:55;5.17;;;4.23;;
12451;SDS011;6291;48.924;12.204;2023-03-21T22:39:59;4.72;;;4.10;;
12451;SDS011;6291;48.924;12.204;2023-03-21T22:45:04;5.00;;;4.50;;
12451;SDS011;6291;48.924;12.204;2023-03-21T22:50:09;5.47;;;4.47;;
12451;SDS011;6291;48.924;12.204;2023-03-21T22:55:13;4.88;;;4.15;;
12451;SDS011;6291;48.924;12.204;2023-03-21T23:00:18;5.15;;;4.32;;
12451;SDS011;6291;48.924;12.204;2023-03-21T23:05:22;5.63;;;4.93;;
12451;SDS011;6291;48.924;12.204;2023-03-21T23:10:25;7.72;;;5.45;;
12451;SDS011;6291;48.924;12.204;2023-03-21T23:15:30;5.55;;;4.93;;
12451;SDS011;6291;48.924;12.204;2023-03-21T23:20:33;7.13;;;5.18;;
12451;SDS011;6291;48.924;12.204;2023-03-21T23:25:37;5.60;;;4.90;;
12451;SDS011;6291;48.924;12.204;2023-03-21T23:30:44;5.70;;;5.10;;
12451;SDS011;6291;48.924;12.204;2023-03-21T23:35:47;5.90;;;5.30;;
12451;SDS011;6291;48.924;12.204;2023-03-21T23:40:51;5.82;;;5.18;;
12451;SDS011;6291;48.924;12.204;2023-03-21T23:45:56;6.27;;;5.07;;
12451;SDS011;6291;48.924;12.204;2023-03-21T23:51:00;7.17;;;5.77;;
12451;SDS011;6291;48.924;12.204;2023-03-21T23:56:08;6.30;;;5.70;;
